Time;durP1;ratioP1;P1;durP2;ratioP2;P2;SDS_P1;SDS_P2;PMS_P1;PMS_P2;Temp;Humidity;BMP_temperature;BMP_pressure;BME280_temperature;BME280_humidity;BME280_pressure;Samples;Min_cycle;Max_cycle;Signal;HPM_P1;HPM_P2
2022/02/11 00:09:04;;;;;;;12.88;5.85;;;5.90;99.90;;;;;;5049881;28;20091;-73
2022/02/11 00:11:34;;;;;;;8.57;5.35;;;5.90;99.90;;;;;;5051695;28;20028;-73
2022/02/11 00:14:01;;;;;;;11.63;5.38;;;5.90;99.90;;;;;;5051300;28;20078;-73
2022/02/11 00:16:27;;;;;;;11.05;6.28;;;5.90;99.90;;;;;;5049167;28;20069;-73
2022/02/11 00:18:53;;;;;;;8.77;4.90;;;5.90;99.90;;;;;;5052036;28;20069;-73
2022/02/11 00:21:20;;;;;;;9.23;5.43;;;5.90;99.90;;;;;;5051397;28;20032;-73
2022/02/11 00:23:46;;;;;;;11.68;5.90;;;5.90;99.90;;;;;;5052289;28;20052;-73
2022/02/11 00:26:13;;;;;;;8.73;5.15;;;5.90;99.90;;;;;;5050357;28;20029;-73
2022/02/11 00:33:51;;;;;;;7.47;4.70;;;6.00;99.90;;;;;;5051879;28;20063;-73
2022/02/11 00:36:17;;;;;;;12.60;5.43;;;5.90;99.90;;;;;;5047851;28;20630;-73
2022/02/11 01:03:20;;;;;;;12.65;5.97;;;6.40;99.90;;;;;;5049689;28;20055;-73
2022/02/11 01:05:46;;;;;;;8.32;4.88;;;6.40;99.90;;;;;;5048772;28;20029;-73
2022/02/11 01:08:13;;;;;;;10.18;5.30;;;6.50;99.90;;;;;;5049882;28;20029;-73
2022/02/11 01:10:39;;;;;;;8.18;5.25;;;6.50;99.90;;;;;;5049811;28;20502;-73
2022/02/11 01:13:04;;;;;;;10.20;5.50;;;6.40;99.90;;;;;;5050060;28;20481;-73
2022/02/11 01:15:33;;;;;;;12.00;5.25;;;6.50;99.90;;;;;;5049518;28;20044;-73
2022/02/11 01:18:02;;;;;;;9.18;5.15;;;6.50;99.90;;;;;;5047069;28;20347;-72
2022/02/11 02:05:57;;;;;;;10.60;5.47;;;6.20;99.90;;;;;;5048532;28;20428;-73
2022/02/11 02:24:48;;;;;;;6.75;3.70;;;6.20;99.90;;;;;;5051434;28;20029;-74
2022/02/11 02:31:26;;;;;;;5.18;3.50;;;6.10;99.90;;;;;;5049636;28;20087;-74
2022/02/11 02:58:07;;;;;;;6.43;3.28;;;5.80;99.90;;;;;;5031310;28;20103;-73
2022/02/11 04:55:02;;;;;;;4.57;3.53;;;1.80;99.90;;;;;;5053285;28;20559;-73
2022/02/11 05:00:14;;;;;;;5.47;4.45;;;1.80;99.90;;;;;;5052352;28;20071;-73
2022/02/11 05:02:41;;;;;;;4.70;3.92;;;1.80;99.90;;;;;;5053390;28;20382;-73
2022/02/11 05:05:08;;;;;;;5.95;4.88;;;1.80;99.90;;;;;;5052220;28;20029;-73
2022/02/11 05:07:35;;;;;;;6.00;4.53;;;1.70;99.90;;;;;;5052618;28;20040;-74
2022/02/11 05:10:01;;;;;;;4.82;4.00;;;1.70;99.90;;;;;;5052626;28;20756;-76
2022/02/11 05:12:27;;;;;;;5.47;4.75;;;1.70;99.90;;;;;;5053149;28;20063;-74
2022/02/11 05:14:52;;;;;;;4.75;3.72;;;1.70;99.90;;;;;;5053163;28;20485;-73
2022/02/11 05:17:18;;;;;;;5.22;4.38;;;1.70;99.90;;;;;;5051896;28;20191;-73
2022/02/11 05:19:43;;;;;;;6.32;4.53;;;1.70;99.90;;;;;;5052931;28;20036;-73
2022/02/11 05:22:09;;;;;;;6.38;4.45;;;1.70;99.90;;;;;;5051530;28;20032;-73
2022/02/11 05:24:35;;;;;;;6.13;4.60;;;1.70;99.90;;;;;;5052093;28;20021;-74
2022/02/11 05:27:00;;;;;;;4.97;3.85;;;1.70;99.90;;;;;;5050802;28;20602;-75
2022/02/11 05:29:26;;;;;;;5.13;4.38;;;1.80;99.90;;;;;;5050918;28;20032;-74
2022/02/11 05:31:51;;;;;;;7.55;4.72;;;1.80;99.90;;;;;;5049967;28;20025;-74
2022/02/11 05:34:17;;;;;;;5.47;4.20;;;1.80;99.90;;;;;;5050614;28;20442;-74
2022/02/11 05:36:43;;;;;;;4.60;3.75;;;1.80;99.90;;;;;;5051006;28;20104;-73
2022/02/11 05:39:09;;;;;;;4.50;3.80;;;1.80;99.90;;;;;;5050288;28;20033;-74
2022/02/11 05:41:34;;;;;;;6.43;4.50;;;1.80;99.90;;;;;;5050988;28;20017;-74
2022/02/11 05:44:00;;;;;;;5.28;4.05;;;1.80;99.90;;;;;;5050504;28;20021;-75
2022/02/11 05:46:27;;;;;;;8.18;3.85;;;1.90;99.90;;;;;;5050381;28;20459;-74
2022/02/11 05:48:54;;;;;;;5.43;4.22;;;1.80;99.90;;;;;;5051089;28;20028;-74
2022/02/11 05:51:19;;;;;;;5.55;4.25;;;1.80;99.90;;;;;;5049903;28;20557;-75
2022/02/11 05:53:45;;;;;;;5.30;4.28;;;1.80;99.90;;;;;;5050920;28;20027;-75
2022/02/11 05:56:11;;;;;;;6.68;4.50;;;1.70;99.90;;;;;;5049204;28;20064;-74
2022/02/11 05:58:38;;;;;;;6.30;4.63;;;1.70;99.90;;;;;;5050891;28;20033;-74
2022/02/11 06:01:07;;;;;;;8.57;4.97;;;1.70;99.90;;;;;;5051008;28;20029;-74
2022/02/11 06:03:33;;;;;;;5.88;4.35;;;1.60;99.90;;;;;;5052280;28;20060;-74
2022/02/11 06:05:59;;;;;;;6.75;4.38;;;1.70;99.90;;;;;;5050859;28;20096;-76
2022/02/11 06:08:24;;;;;;;9.23;5.18;;;1.70;99.90;;;;;;5050913;28;20035;-73
2022/02/11 06:10:50;;;;;;;6.78;5.13;;;1.70;99.90;;;;;;5047638;28;20044;-73
2022/02/11 06:13:16;;;;;;;8.77;5.15;;;1.70;99.90;;;;;;5049323;28;20108;-71
2022/02/11 06:15:44;;;;;;;8.05;5.20;;;1.80;99.90;;;;;;5050758;28;20075;-74
2022/02/11 06:18:10;;;;;;;6.90;5.80;;;1.80;99.90;;;;;;5049868;28;20021;-73
2022/02/11 06:20:35;;;;;;;10.25;4.95;;;1.70;99.90;;;;;;5050834;28;20037;-72
2022/02/11 06:23:02;;;;;;;10.27;5.80;;;1.70;99.90;;;;;;5051162;28;20029;-77
2022/02/11 06:25:28;;;;;;;8.02;5.32;;;1.70;99.90;;;;;;5051576;28;20108;-71
2022/02/11 06:27:54;;;;;;;9.05;5.32;;;1.70;99.90;;;;;;5051171;28;20121;-73
2022/02/11 06:30:20;;;;;;;7.88;5.93;;;1.60;99.90;;;;;;5051190;28;20025;-73
2022/02/11 06:32:45;;;;;;;8.98;5.30;;;1.60;99.90;;;;;;5051105;28;20025;-72
2022/02/11 06:35:11;;;;;;;9.73;5.85;;;1.50;99.90;;;;;;5051150;28;20044;-73
2022/02/11 06:37:41;;;;;;;7.40;5.22;;;1.50;99.90;;;;;;5050731;28;20033;-73
2022/02/11 06:40:08;;;;;;;9.45;6.00;;;1.40;99.90;;;;;;5041583;28;20044;-73
2022/02/11 06:42:34;;;;;;;9.75;6.25;;;1.30;99.90;;;;;;5051079;28;20036;-73
2022/02/11 06:45:02;;;;;;;14.00;6.05;;;1.30;99.90;;;;;;5051250;28;20033;-72
2022/02/11 06:47:27;;;;;;;10.30;6.05;;;1.30;99.90;;;;;;5052052;28;20029;-72
2022/02/11 06:49:53;;;;;;;9.93;5.63;;;1.20;99.90;;;;;;5055739;28;20047;-72
2022/02/11 06:52:19;;;;;;;10.60;5.90;;;1.20;99.90;;;;;;5054201;28;20494;-72
2022/02/11 06:54:45;;;;;;;11.98;5.82;;;1.20;99.90;;;;;;5055650;28;20029;-73
2022/02/11 06:57:10;;;;;;;14.55;6.07;;;1.10;99.90;;;;;;5054283;28;20049;-70
2022/02/11 06:59:36;;;;;;;12.63;6.18;;;1.00;99.90;;;;;;5055614;28;20021;-71
2022/02/11 07:02:02;;;;;;;11.40;6.30;;;1.10;99.90;;;;;;5054611;28;20370;-78
2022/02/11 07:04:29;;;;;;;15.07;6.13;;;1.10;99.90;;;;;;5054861;28;20033;-73
2022/02/11 07:06:54;;;;;;;9.75;6.10;;;1.10;99.90;;;;;;5055057;28;20462;-72
2022/02/11 07:09:20;;;;;;;11.25;5.90;;;1.10;99.90;;;;;;5053727;28;20069;-72
2022/02/11 07:11:46;;;;;;;7.47;5.00;;;1.10;99.90;;;;;;5052920;28;20055;-72
2022/02/11 07:14:11;;;;;;;10.65;5.70;;;1.00;99.90;;;;;;5055867;28;20087;-74
2022/02/11 07:16:37;;;;;;;11.10;6.13;;;1.00;99.90;;;;;;5047527;28;20354;-74
2022/02/11 07:19:03;;;;;;;13.52;5.88;;;1.00;99.90;;;;;;5053686;28;20036;-78
2022/02/11 07:21:29;;;;;;;9.40;5.28;;;1.00;99.90;;;;;;5053233;28;20397;-73
2022/02/11 07:23:54;;;;;;;8.35;5.20;;;1.00;99.90;;;;;;5054029;28;20033;-73
2022/02/11 07:26:20;;;;;;;11.60;5.43;;;1.00;99.90;;;;;;5053727;28;20029;-73
2022/02/11 07:28:46;;;;;;;10.52;5.22;;;1.10;99.90;;;;;;5054127;28;20080;-73
2022/02/11 07:31:11;;;;;;;5.88;4.57;;;1.10;99.90;;;;;;5053512;28;20033;-75
2022/02/11 07:33:37;;;;;;;13.40;4.07;;;1.20;99.90;;;;;;5054440;28;20028;-74
2022/02/11 07:36:03;;;;;;;12.68;4.13;;;1.50;99.90;;;;;;5053545;28;20046;-77
2022/02/11 07:38:30;;;;;;;9.05;4.65;;;1.50;99.90;;;;;;5053239;28;20107;-74
2022/02/11 07:40:56;;;;;;;13.68;5.05;;;1.50;99.90;;;;;;5054268;28;20040;-74
2022/02/11 07:43:23;;;;;;;7.15;4.68;;;1.50;99.90;;;;;;5053851;28;20162;-74
2022/02/11 07:45:48;;;;;;;5.85;3.83;;;1.50;99.90;;;;;;5065404;28;20040;-75
2022/02/11 07:48:14;;;;;;;6.90;5.05;;;1.40;99.90;;;;;;5052357;28;20032;-73
2022/02/11 07:50:42;;;;;;;11.40;4.68;;;1.40;99.90;;;;;;5053727;28;20043;-72
2022/02/11 07:53:07;;;;;;;9.27;4.70;;;1.40;99.90;;;;;;5053499;28;20470;-75
2022/02/11 07:55:33;;;;;;;7.32;4.70;;;1.50;99.90;;;;;;5053496;28;20065;-73
2022/02/11 07:57:59;;;;;;;11.15;5.25;;;1.60;99.90;;;;;;5053485;28;20124;-74
2022/02/11 08:00:26;;;;;;;12.15;4.95;;;1.60;99.90;;;;;;5053352;28;20586;-74
2022/02/11 08:02:52;;;;;;;8.88;3.90;;;1.60;99.90;;;;;;5054337;28;20029;-74
2022/02/11 08:05:18;;;;;;;9.25;3.55;;;1.90;99.90;;;;;;5053237;28;20044;-72
2022/02/11 08:07:44;;;;;;;13.93;3.50;;;2.10;99.90;;;;;;5053521;28;20037;-73
2022/02/11 08:10:10;;;;;;;7.75;3.67;;;2.30;99.90;;;;;;5052983;28;20021;-73
2022/02/11 08:12:36;;;;;;;7.60;3.22;;;2.40;99.90;;;;;;5053701;28;20052;-72
2022/02/11 08:15:05;;;;;;;5.60;2.90;;;2.40;99.90;;;;;;5058510;28;20060;-72
2022/02/11 08:17:31;;;;;;;7.43;3.60;;;2.60;99.90;;;;;;5058562;28;20040;-73
2022/02/11 08:19:57;;;;;;;8.43;3.45;;;2.50;99.90;;;;;;5053793;28;20025;-73
2022/02/11 08:22:22;;;;;;;9.75;3.78;;;2.40;99.90;;;;;;5052723;28;20063;-76
2022/02/11 08:24:48;;;;;;;8.43;3.28;;;2.40;99.90;;;;;;5053385;28;20066;-74
2022/02/11 08:27:14;;;;;;;9.73;2.95;;;2.50;99.90;;;;;;5052420;28;20112;-74
2022/02/11 08:29:41;;;;;;;9.75;3.17;;;2.60;99.90;;;;;;5053742;28;20032;-73
2022/02/11 08:32:09;;;;;;;8.45;2.90;;;2.70;99.90;;;;;;5053558;28;20059;-78
2022/02/11 08:34:35;;;;;;;7.65;3.00;;;2.80;99.90;;;;;;5053030;28;20355;-74
2022/02/11 08:37:01;;;;;;;9.80;3.22;;;2.90;99.90;;;;;;5053272;28;20390;-74
2022/02/11 08:39:26;;;;;;;11.30;3.22;;;3.00;99.90;;;;;;5052035;28;20032;-74
2022/02/11 08:41:53;;;;;;;8.00;2.40;;;3.10;99.90;;;;;;5052836;28;20033;-73
2022/02/11 08:44:19;;;;;;;7.55;2.95;;;3.20;99.90;;;;;;5052532;28;20073;-74
2022/02/11 08:46:45;;;;;;;7.55;2.92;;;3.10;99.90;;;;;;5063146;28;20043;-74
2022/02/11 08:49:11;;;;;;;6.93;2.83;;;3.00;99.90;;;;;;5053062;28;20369;-74
2022/02/11 08:51:37;;;;;;;4.38;2.97;;;2.90;99.90;;;;;;5053574;28;20032;-74
2022/02/11 08:54:04;;;;;;;4.72;2.80;;;2.90;99.90;;;;;;5053060;28;20033;-73
2022/02/11 08:56:30;;;;;;;8.88;2.85;;;2.90;99.90;;;;;;5053001;28;20055;-74
2022/02/11 08:58:56;;;;;;;7.22;2.88;;;3.00;99.90;;;;;;5060111;28;20025;-73
2022/02/11 09:01:23;;;;;;;8.30;2.60;;;3.00;99.90;;;;;;5063163;28;20085;-75
2022/02/11 09:03:48;;;;;;;6.45;2.78;;;3.00;99.90;;;;;;5060193;28;20465;-72
2022/02/11 09:06:15;;;;;;;6.03;2.40;;;3.00;99.90;;;;;;5066215;28;20059;-74
2022/02/11 09:08:40;;;;;;;6.63;2.60;;;3.10;99.90;;;;;;5068575;28;20033;-72
2022/02/11 09:11:13;;;;;;;7.07;2.60;;;3.10;99.90;;;;;;5053168;28;20032;-76
2022/02/11 09:13:38;;;;;;;9.38;2.45;;;3.20;99.90;;;;;;5053338;28;20033;-73
2022/02/11 09:16:04;;;;;;;4.97;2.10;;;3.20;99.90;;;;;;5052539;28;20040;-73
2022/02/11 09:18:30;;;;;;;7.07;2.30;;;3.50;99.90;;;;;;5052717;28;20047;-72
2022/02/11 09:20:57;;;;;;;6.97;2.75;;;3.60;99.90;;;;;;5052672;28;20497;-73
2022/02/11 09:23:25;;;;;;;6.05;2.60;;;3.50;99.90;;;;;;5052916;28;20036;-73
2022/02/11 09:25:51;;;;;;;5.93;2.50;;;3.50;99.90;;;;;;5052980;28;20033;-73
2022/02/11 09:28:17;;;;;;;8.45;2.33;;;3.60;99.90;;;;;;5051699;28;20029;-72
2022/02/11 09:30:43;;;;;;;5.60;2.50;;;3.70;99.90;;;;;;5052038;28;20103;-72
2022/02/11 09:33:09;;;;;;;9.10;2.65;;;3.70;99.90;;;;;;5052026;28;20112;-77
2022/02/11 09:35:35;;;;;;;7.88;3.25;;;3.90;99.90;;;;;;5052131;28;20112;-73
2022/02/11 09:38:00;;;;;;;10.82;2.40;;;3.90;99.90;;;;;;5051576;28;20029;-73
2022/02/11 09:40:27;;;;;;;8.85;2.40;;;3.90;99.90;;;;;;5050670;28;20033;-73
2022/02/11 09:42:55;;;;;;;9.98;2.45;;;4.00;99.90;;;;;;5052068;28;20108;-73
2022/02/11 09:45:23;;;;;;;6.72;2.40;;;4.00;99.90;;;;;;5058821;28;20377;-72
2022/02/11 09:47:50;;;;;;;5.85;2.15;;;4.10;99.90;;;;;;5051797;28;20041;-72
2022/02/11 09:50:18;;;;;;;6.75;1.88;;;4.10;99.90;;;;;;5051259;28;20025;-72
2022/02/11 09:52:53;;;;;;;5.28;2.03;;;4.20;99.90;;;;;;5052100;28;20040;-72
2022/02/11 09:55:40;;;;;;;6.82;2.03;;;4.40;99.90;;;;;;5051694;28;20050;-73
2022/02/11 09:58:16;;;;;;;5.72;2.00;;;4.60;99.90;;;;;;5034010;28;20148;-73
2022/02/11 10:00:44;;;;;;;5.22;1.42;;;4.80;99.90;;;;;;5051735;28;20032;-72
2022/02/11 10:03:31;;;;;;;4.10;1.90;;;4.70;99.90;;;;;;5051452;28;20040;-76
2022/02/11 10:06:03;;;;;;;5.03;1.60;;;4.80;99.90;;;;;;5051125;28;20032;-72
2022/02/11 10:08:30;;;;;;;5.93;2.08;;;4.90;99.90;;;;;;5050629;28;20455;-73
2022/02/11 10:10:58;;;;;;;7.70;2.20;;;4.90;99.90;;;;;;5051394;28;20025;-73
2022/02/11 10:13:30;;;;;;;8.68;1.98;;;4.90;99.90;;;;;;5050721;28;20468;-74
2022/02/11 10:16:12;;;;;;;10.68;2.05;;;5.00;99.90;;;;;;5050861;28;20363;-73
2022/02/11 10:18:42;;;;;;;9.25;2.40;;;5.00;99.90;;;;;;5051834;28;20112;-73
2022/02/11 10:21:12;;;;;;;4.63;2.00;;;5.10;99.90;;;;;;5051466;28;20033;-77
2022/02/11 10:23:41;;;;;;;7.50;1.85;;;5.20;99.90;;;;;;5051213;28;20508;-74
2022/02/11 10:26:13;;;;;;;6.82;2.05;;;5.30;99.90;;;;;;5051658;28;20064;-73
2022/02/11 10:28:51;;;;;;;8.52;1.98;;;5.40;99.90;;;;;;5051613;28;20029;-73
2022/02/11 10:31:21;;;;;;;5.15;1.60;;;5.40;99.90;;;;;;5050911;28;20037;-74
2022/02/11 10:33:53;;;;;;;7.03;1.65;;;5.50;99.90;;;;;;5051182;28;20021;-74
2022/02/11 10:36:22;;;;;;;4.90;1.58;;;5.60;99.90;;;;;;5050257;28;20037;-74
2022/02/11 10:39:07;;;;;;;6.65;1.75;;;5.60;99.90;;;;;;5051385;28;20029;-74
2022/02/11 10:41:56;;;;;;;5.72;1.95;;;5.60;99.90;;;;;;5050551;28;20063;-74
2022/02/11 10:44:30;;;;;;;8.68;2.10;;;5.60;99.90;;;;;;5050005;28;20037;-73
2022/02/11 10:47:07;;;;;;;8.88;1.95;;;5.70;99.90;;;;;;5032279;28;20045;-74
2022/02/11 10:49:43;;;;;;;5.88;2.10;;;5.60;99.90;;;;;;5034394;28;20028;-74
2022/02/11 10:52:18;;;;;;;11.52;2.28;;;5.60;99.90;;;;;;5051174;28;20025;-75
2022/02/11 10:54:49;;;;;;;8.23;1.98;;;5.50;99.90;;;;;;5051367;28;20029;-74
2022/02/11 10:57:17;;;;;;;5.72;1.95;;;5.50;99.90;;;;;;5050595;28;20099;-75
2022/02/11 10:59:45;;;;;;;7.78;2.53;;;5.50;99.90;;;;;;5051142;28;20115;-74
2022/02/11 11:02:17;;;;;;;3.67;1.40;;;5.50;99.90;;;;;;5050465;28;20486;-78
2022/02/11 11:04:47;;;;;;;6.22;1.83;;;5.60;99.90;;;;;;5051265;28;20021;-74
2022/02/11 11:07:17;;;;;;;9.00;1.98;;;5.70;99.90;;;;;;5050638;28;20037;-79
2022/02/11 11:09:45;;;;;;;10.80;1.98;;;5.70;99.90;;;;;;5050578;28;20041;-73
2022/02/11 11:12:15;;;;;;;7.10;2.22;;;5.90;99.90;;;;;;5050360;28;20565;-79
2022/02/11 11:14:42;;;;;;;4.82;1.70;;;6.00;99.90;;;;;;5052922;28;20027;-72
2022/02/11 11:17:08;;;;;;;4.72;1.77;;;6.00;99.90;;;;;;5050664;28;20041;-73
2022/02/11 11:19:36;;;;;;;9.95;1.90;;;6.00;99.90;;;;;;5050130;28;20021;-73
2022/02/11 11:22:11;;;;;;;4.78;2.10;;;6.10;99.90;;;;;;5051000;28;20073;-73
2022/02/11 11:25:02;;;;;;;9.82;2.13;;;6.20;99.90;;;;;;5030688;28;20026;-74
2022/02/11 11:27:46;;;;;;;5.38;2.00;;;6.40;99.90;;;;;;5031838;28;20489;-73
2022/02/11 11:30:23;;;;;;;7.35;2.20;;;6.70;99.90;;;;;;5050342;28;20033;-77
2022/02/11 11:33:07;;;;;;;7.18;1.80;;;6.70;99.90;;;;;;5051915;28;20028;-73
2022/02/11 11:35:36;;;;;;;8.93;2.00;;;6.80;99.20;;;;;;5053640;28;20024;-73
2022/02/11 11:38:12;;;;;;;5.03;2.08;;;6.70;99.90;;;;;;5039426;28;20088;-73
2022/02/11 11:40:38;;;;;;;6.85;1.95;;;6.70;99.90;;;;;;5053767;28;20087;-73
2022/02/11 11:43:14;;;;;;;5.88;1.70;;;6.60;99.00;;;;;;5053951;28;20036;-73
2022/02/11 11:45:43;;;;;;;9.38;2.53;;;6.60;99.90;;;;;;5064374;28;20032;-74
2022/02/11 11:48:13;;;;;;;6.45;2.05;;;6.60;99.90;;;;;;5064404;28;20375;-74
2022/02/11 11:50:45;;;;;;;7.47;1.92;;;6.60;99.90;;;;;;5053983;28;20112;-73
2022/02/11 11:53:27;;;;;;;3.85;1.58;;;6.60;99.90;;;;;;5055435;28;20029;-74
2022/02/11 11:55:53;;;;;;;8.40;2.08;;;6.60;99.90;;;;;;5057072;28;20052;-75
2022/02/11 11:58:30;;;;;;;5.28;1.80;;;6.50;99.90;;;;;;5052891;28;20073;-74
2022/02/11 12:01:01;;;;;;;6.93;2.00;;;6.40;97.20;;;;;;5054078;28;20048;-74
2022/02/11 12:03:27;;;;;;;5.57;2.08;;;6.30;98.20;;;;;;5053557;28;20112;-74
2022/02/11 12:05:56;;;;;;;7.68;1.40;;;6.30;98.00;;;;;;5054196;28;20533;-74
2022/02/11 12:08:29;;;;;;;6.05;1.50;;;6.30;98.40;;;;;;5053398;28;20524;-74
2022/02/11 12:10:57;;;;;;;7.13;1.40;;;6.30;97.80;;;;;;5053859;28;20119;-73
2022/02/11 12:13:24;;;;;;;4.85;1.65;;;6.50;96.90;;;;;;5053227;28;20031;-73
2022/02/11 12:15:49;;;;;;;8.70;1.38;;;6.60;95.90;;;;;;5065288;28;20078;-74
2022/02/11 12:18:15;;;;;;;3.47;1.20;;;6.70;95.30;;;;;;5063743;28;20482;-82
2022/02/11 12:20:43;;;;;;;5.70;1.60;;;6.80;94.70;;;;;;5051513;28;20063;-74
2022/02/11 12:28:41;;;;;;;5.80;1.40;;;7.10;92.30;;;;;;5052875;28;20059;-73
2022/02/11 12:31:07;;;;;;;7.03;1.30;;;7.10;91.80;;;;;;5053462;28;20082;-73
2022/02/11 12:33:33;;;;;;;4.32;1.30;;;7.00;91.20;;;;;;5052548;28;20025;-73
2022/02/11 12:36:18;;;;;;;4.47;1.40;;;7.00;90.20;;;;;;5053365;28;20039;-75
2022/02/11 12:38:55;;;;;;;5.13;1.33;;;6.90;91.30;;;;;;5053342;28;20025;-72
2022/02/11 12:41:20;;;;;;;5.50;1.40;;;6.80;91.00;;;;;;5050816;28;20083;-73
2022/02/11 12:43:57;;;;;;;4.50;1.20;;;6.80;89.20;;;;;;5052385;28;20059;-73
2022/02/11 12:46:23;;;;;;;6.10;1.73;;;6.60;92.40;;;;;;5068023;28;20040;-74
2022/02/11 12:48:49;;;;;;;4.57;0.98;;;6.60;92.30;;;;;;5058876;28;20111;-74
2022/02/11 12:51:17;;;;;;;6.03;1.10;;;6.50;91.90;;;;;;5053228;28;20033;-79
2022/02/11 12:53:42;;;;;;;4.10;1.10;;;6.50;92.40;;;;;;5053475;28;20056;-73
2022/02/11 12:56:13;;;;;;;9.40;1.50;;;6.50;91.70;;;;;;5052693;28;20462;-73
2022/02/11 12:58:38;;;;;;;;;;;6.40;92.40;;;;;;5052930;28;20028;-74
2022/02/11 13:01:04;;;;;;;3.90;0.93;;;6.30;93.60;;;;;;5053119;28;19912;-74
2022/02/11 13:03:30;;;;;;;7.03;1.33;;;6.30;94.50;;;;;;5052389;28;20550;-74
2022/02/11 13:05:56;;;;;;;4.85;1.60;;;6.40;95.90;;;;;;5052690;28;20033;-74
2022/02/11 13:08:23;;;;;;;3.40;1.35;;;6.60;94.90;;;;;;5052079;28;20448;-74
2022/02/11 13:11:02;;;;;;;5.75;1.45;;;6.60;94.90;;;;;;5052958;28;20435;-74
2022/02/11 13:13:29;;;;;;;4.35;1.25;;;6.60;94.00;;;;;;5049039;28;20029;-73
2022/02/11 13:15:56;;;;;;;3.78;1.45;;;6.60;94.10;;;;;;5053350;28;20059;-74
2022/02/11 13:18:24;;;;;;;5.93;1.42;;;6.50;95.00;;;;;;5051604;28;20029;-74
2022/02/11 13:20:50;;;;;;;5.53;1.92;;;6.50;95.80;;;;;;5052484;28;20025;-73
2022/02/11 13:23:21;;;;;;;4.18;1.85;;;6.40;97.00;;;;;;5051884;28;20021;-78
2022/02/11 13:25:48;;;;;;;5.60;1.65;;;6.30;97.60;;;;;;5052659;28;20374;-77
2022/02/11 13:28:16;;;;;;;5.13;1.70;;;6.30;97.70;;;;;;5052255;28;20037;-74
2022/02/11 13:30:47;;;;;;;5.95;1.67;;;6.30;98.10;;;;;;5051795;28;20037;-74
2022/02/11 13:33:23;;;;;;;5.85;1.80;;;6.60;96.30;;;;;;5052016;28;20025;-75
2022/02/11 13:35:50;;;;;;;6.22;1.75;;;7.20;95.40;;;;;;5052126;28;20028;-74
2022/02/11 13:38:37;;;;;;;4.28;1.52;;;7.60;94.30;;;;;;5031992;28;20031;-80
2022/02/11 13:41:07;;;;;;;6.20;1.75;;;;;;;;;;5040285;28;20044;-72
2022/02/11 13:44:04;;;;;;;5.70;1.27;;;8.40;89.10;;;;;;5050667;28;20371;-73
2022/02/11 13:46:40;;;;;;;4.13;1.52;;;8.80;85.70;;;;;;5068707;28;20037;-75
2022/02/11 13:49:09;;;;;;;4.40;1.55;;;8.90;81.00;;;;;;5072291;28;20033;-74
2022/02/11 13:51:37;;;;;;;3.25;1.42;;;8.90;80.60;;;;;;5057834;28;20186;-78
2022/02/11 13:54:14;;;;;;;8.18;2.05;;;9.10;82.00;;;;;;5050788;28;20035;-75
2022/02/11 13:56:42;;;;;;;4.90;1.30;;;9.10;78.20;;;;;;5050418;28;20053;-71
2022/02/11 13:59:25;;;;;;;6.53;2.17;;;8.90;77.50;;;;;;5047661;28;20044;-75
2022/02/11 14:01:52;;;;;;;6.28;1.65;;;8.50;81.20;;;;;;5051271;28;20037;-78
2022/02/11 14:04:23;;;;;;;5.93;1.55;;;8.10;83.80;;;;;;5051390;28;20443;-72
2022/02/11 14:06:54;;;;;;;6.32;1.75;;;7.90;88.20;;;;;;5051971;28;20075;-74
2022/02/11 14:09:35;;;;;;;6.57;1.58;;;7.60;88.90;;;;;;5051190;28;20071;-73
2022/02/11 14:12:03;;;;;;;5.95;1.65;;;7.20;91.40;;;;;;5051683;28;20024;-71
2022/02/11 14:14:31;;;;;;;6.75;1.40;;;7.10;91.20;;;;;;5051436;28;20025;-73
2022/02/11 14:17:00;;;;;;;4.95;1.50;;;7.00;88.50;;;;;;5058050;28;20055;-72
2022/02/11 14:19:27;;;;;;;4.93;1.70;;;6.90;90.70;;;;;;5051028;28;20112;-72
2022/02/11 14:22:01;;;;;;;5.68;1.50;;;6.90;90.90;;;;;;5051333;28;20029;-72
2022/02/11 14:24:28;;;;;;;7.38;2.00;;;6.90;91.30;;;;;;5050918;28;20018;-75
2022/02/11 14:26:54;;;;;;;4.78;1.20;;;6.80;90.10;;;;;;5051722;28;20033;-80
2022/02/11 14:29:20;;;;;;;6.35;1.90;;;6.80;91.80;;;;;;5050507;28;20021;-72
2022/02/11 14:31:47;;;;;;;4.13;1.30;;;6.70;91.80;;;;;;5051145;28;20071;-73
2022/02/11 14:34:15;;;;;;;4.32;1.10;;;6.80;91.20;;;;;;5051292;28;20056;-73
2022/02/11 14:36:43;;;;;;;5.32;1.50;;;6.80;91.80;;;;;;5050209;28;20025;-74
2022/02/11 14:39:14;;;;;;;5.25;1.10;;;6.80;90.50;;;;;;5051207;28;20029;-76
2022/02/11 14:41:48;;;;;;;4.63;1.10;;;6.70;89.00;;;;;;5050067;28;20025;-78
2022/02/11 14:44:24;;;;;;;4.03;1.17;;;6.50;90.00;;;;;;5050271;28;20024;-76
2022/02/11 14:46:51;;;;;;;3.20;1.27;;;6.40;89.90;;;;;;5031454;28;20095;-80
2022/02/11 14:49:19;;;;;;;8.18;1.83;;;6.30;88.70;;;;;;5031323;28;20021;-75
2022/02/11 14:51:47;;;;;;;6.88;1.40;;;6.30;90.50;;;;;;5042008;28;20139;-78
2022/02/11 14:54:12;;;;;;;5.85;1.30;;;6.30;90.40;;;;;;5050300;28;20029;-78
2022/02/11 14:56:39;;;;;;;5.20;1.30;;;6.30;90.10;;;;;;5049144;28;20076;-75
2022/02/11 14:59:08;;;;;;;5.88;1.60;;;6.40;90.80;;;;;;5050953;28;20119;-78
2022/02/11 15:01:40;;;;;;;6.70;1.23;;;6.40;89.60;;;;;;5050502;28;20064;-77
2022/02/11 15:04:06;;;;;;;4.00;1.50;;;6.30;90.90;;;;;;5051210;28;20031;-74
2022/02/11 15:06:32;;;;;;;4.95;1.50;;;6.20;91.80;;;;;;5050492;28;20052;-79
2022/02/11 15:08:58;;;;;;;6.53;1.77;;;6.10;92.90;;;;;;5054200;28;20033;-76
2022/02/11 15:11:25;;;;;;;5.43;1.70;;;6.00;94.30;;;;;;5054176;28;20025;-76
2022/02/11 15:13:51;;;;;;;10.65;2.22;;;5.90;95.40;;;;;;5055213;28;20478;-79
2022/02/11 15:16:16;;;;;;;4.68;1.88;;;5.80;97.20;;;;;;5055377;28;20039;-75
2022/02/11 15:18:42;;;;;;;7.25;1.60;;;5.80;97.10;;;;;;5053277;28;20029;-75
2022/02/11 15:21:08;;;;;;;5.65;1.60;;;5.70;93.90;;;;;;5054636;28;20528;-71
2022/02/11 15:23:38;;;;;;;7.97;1.58;;;5.60;94.70;;;;;;5054523;28;20021;-71
2022/02/11 15:26:05;;;;;;;;;;;5.60;95.90;;;;;;5055661;28;20068;-75
2022/02/11 15:28:33;;;;;;;4.47;1.00;;;5.60;94.80;;;;;;5053935;28;19948;-73
2022/02/11 15:30:59;;;;;;;5.45;1.65;;;5.50;97.90;;;;;;5054791;28;20021;-73
2022/02/11 15:33:25;;;;;;;5.03;1.35;;;5.50;94.70;;;;;;5053744;28;20040;-75
2022/02/11 15:35:51;;;;;;;6.82;1.58;;;5.50;95.00;;;;;;5054070;28;20037;-74
2022/02/11 15:38:17;;;;;;;4.47;1.52;;;5.50;95.60;;;;;;5055015;28;20502;-74
2022/02/11 15:40:43;;;;;;;6.40;1.73;;;5.40;95.80;;;;;;5053521;28;20099;-74
2022/02/11 15:43:08;;;;;;;3.88;1.48;;;5.40;96.30;;;;;;5054872;28;20025;-73
2022/02/11 15:45:34;;;;;;;7.03;1.52;;;5.40;95.60;;;;;;5053793;28;20082;-73
2022/02/11 15:48:00;;;;;;;7.35;1.50;;;5.50;95.50;;;;;;5054654;28;20487;-73
2022/02/11 15:50:26;;;;;;;8.32;1.77;;;5.50;95.60;;;;;;5053409;28;20037;-73
2022/02/11 15:52:52;;;;;;;5.00;1.85;;;5.50;95.70;;;;;;5054472;28;20092;-73
2022/02/11 15:55:21;;;;;;;8.00;3.28;;;5.50;96.70;;;;;;5054602;28;20470;-74
2022/02/11 15:57:47;;;;;;;4.97;2.10;;;5.40;96.30;;;;;;5054430;28;20049;-74
2022/02/11 16:00:15;;;;;;;13.98;2.03;;;5.40;96.90;;;;;;5054351;28;20021;-73
2022/02/11 16:02:41;;;;;;;6.03;1.58;;;5.30;97.20;;;;;;5051867;28;20024;-74
2022/02/11 16:05:08;;;;;;;5.82;1.50;;;5.30;97.50;;;;;;5054111;28;20183;-73
2022/02/11 16:07:35;;;;;;;4.97;2.42;;;5.30;97.20;;;;;;5053570;28;20032;-73
2022/02/11 16:10:00;;;;;;;11.82;2.40;;;5.30;97.80;;;;;;5054149;28;20037;-73
2022/02/11 16:12:26;;;;;;;8.05;1.45;;;5.30;98.30;;;;;;5053138;28;20029;-73
2022/02/11 16:14:53;;;;;;;7.35;1.70;;;5.20;98.30;;;;;;5053762;28;20531;-73
2022/02/11 16:17:23;;;;;;;5.18;1.80;;;5.20;98.50;;;;;;5054319;28;20470;-73
2022/02/11 16:19:52;;;;;;;5.20;1.58;;;5.10;99.50;;;;;;5053901;28;20476;-73
2022/02/11 16:22:19;;;;;;;4.05;1.70;;;5.10;99.70;;;;;;5053646;28;20067;-73
2022/02/11 16:24:46;;;;;;;5.65;1.80;;;5.00;99.90;;;;;;5051962;28;20021;-73
2022/02/11 16:27:14;;;;;;;6.03;1.77;;;5.00;99.90;;;;;;5053791;28;20044;-73
2022/02/11 16:29:40;;;;;;;5.22;1.98;;;5.00;99.90;;;;;;5053273;28;20033;-73
2022/02/11 16:32:06;;;;;;;5.18;2.08;;;4.90;99.90;;;;;;5053722;28;20029;-72
2022/02/11 16:34:32;;;;;;;7.38;1.73;;;4.80;99.90;;;;;;5052439;28;20497;-74
2022/02/11 16:36:58;;;;;;;5.95;1.80;;;4.80;99.90;;;;;;5053361;28;20037;-70
2022/02/11 16:39:24;;;;;;;3.38;1.30;;;4.80;99.90;;;;;;5052916;28;20029;-78
2022/02/11 16:41:50;;;;;;;7.70;1.85;;;4.70;99.90;;;;;;5052907;28;20463;-70
2022/02/11 16:44:18;;;;;;;7.38;2.00;;;4.70;99.90;;;;;;5053804;28;20063;-71
2022/02/11 16:46:44;;;;;;;7.28;2.35;;;4.90;99.90;;;;;;5052813;28;20063;-72
2022/02/11 16:49:13;;;;;;;6.78;3.00;;;4.80;99.90;;;;;;5053861;28;20466;-74
2022/02/11 16:51:40;;;;;;;7.07;3.00;;;4.50;99.90;;;;;;5052246;28;20028;-73
2022/02/11 16:54:06;;;;;;;10.88;3.08;;;4.20;99.90;;;;;;5053278;28;20033;-72
2022/02/11 16:56:31;;;;;;;10.40;2.95;;;3.80;99.90;;;;;;5051336;28;20056;-72
2022/02/11 16:58:57;;;;;;;6.50;3.00;;;3.60;99.90;;;;;;5052822;28;20115;-73
2022/02/11 17:01:23;;;;;;;10.75;3.60;;;3.40;99.90;;;;;;5052269;28;20150;-75
2022/02/11 17:03:49;;;;;;;8.32;3.45;;;3.30;99.90;;;;;;5052653;28;20111;-73
2022/02/11 17:06:15;;;;;;;5.30;3.10;;;3.20;99.90;;;;;;5051385;28;20430;-79
2022/02/11 17:08:44;;;;;;;7.75;3.25;;;3.10;99.90;;;;;;5052299;28;20051;-73
2022/02/11 17:11:16;;;;;;;7.78;3.10;;;2.90;99.90;;;;;;5053031;28;20033;-72